sensor_id;sensor_type;location;lat;lon;timestamp;temperature;humidity
43099;DHT22;28715;51.988;6.020;2022-09-12T00:01:21;16.10;99.90
43099;DHT22;28715;51.988;6.020;2022-09-12T00:03:47;16.10;99.90
43099;DHT22;28715;51.988;6.020;2022-09-12T00:06:19;16.10;99.90
43099;DHT22;28715;51.988;6.020;2022-09-12T00:08:44;16.00;99.90
43099;DHT22;28715;51.988;6.020;2022-09-12T00:11:11;16.00;99.90
43099;DHT22;28715;51.988;6.020;2022-09-12T00:13:38;16.00;99.90
43099;DHT22;28715;51.988;6.020;2022-09-12T00:16:04;15.90;99.90
43099;DHT22;28715;51.988;6.020;2022-09-12T00:18:31;15.90;99.90
43099;DHT22;28715;51.988;6.020;2022-09-12T00:21:01;15.90;99.90
43099;DHT22;28715;51.988;6.020;2022-09-12T00:23:27;15.90;99.90
43099;DHT22;28715;51.988;6.020;2022-09-12T00:25:52;15.90;99.90
43099;DHT22;28715;51.988;6.020;2022-09-12T00:28:18;15.90;99.90
43099;DHT22;28715;51.988;6.020;2022-09-12T00:30:46;15.80;99.90
43099;DHT22;28715;51.988;6.020;2022-09-12T00:33:12;15.80;99.90
43099;DHT22;28715;51.988;6.020;2022-09-12T00:35:47;15.80;99.90
43099;DHT22;28715;51.988;6.020;2022-09-12T00:38:14;15.80;99.90
43099;DHT22;28715;51.988;6.020;2022-09-12T00:40:41;15.80;99.90
43099;DHT22;28715;51.988;6.020;2022-09-12T00:45:40;15.70;99.90
43099;DHT22;28715;51.988;6.020;2022-09-12T00:48:16;15.70;99.90
43099;DHT22;28715;51.988;6.020;2022-09-12T00:50:43;15.70;99.90
43099;DHT22;28715;51.988;6.020;2022-09-12T00:53:09;15.60;99.90
43099;DHT22;28715;51.988;6.020;2022-09-12T00:55:39;15.60;99.90
43099;DHT22;28715;51.988;6.020;2022-09-12T00:58:10;15.60;99.90
43099;DHT22;28715;51.988;6.020;2022-09-12T01:00:37;15.60;99.90
43099;DHT22;28715;51.988;6.020;2022-09-12T01:03:11;15.60;99.90
43099;DHT22;28715;51.988;6.020;2022-09-12T01:05:42;15.60;99.90
43099;DHT22;28715;51.988;6.020;2022-09-12T01:08:09;15.50;99.90
43099;DHT22;28715;51.988;6.020;2022-09-12T01:10:37;15.50;99.90
43099;DHT22;28715;51.988;6.020;2022-09-12T01:13:05;15.50;99.90
43099;DHT22;28715;51.988;6.020;2022-09-12T01:15:32;15.50;99.90
43099;DHT22;28715;51.988;6.020;2022-09-12T01:20:46;15.40;99.90
43099;DHT22;28715;51.988;6.020;2022-09-12T01:26:06;15.40;99.90
43099;DHT22;28715;51.988;6.020;2022-09-12T01:31:51;15.40;99.90
43099;DHT22;28715;51.988;6.020;2022-09-12T01:34:44;15.40;99.90
43099;DHT22;28715;51.988;6.020;2022-09-12T01:37:13;15.40;99.90
43099;DHT22;28715;51.988;6.020;2022-09-12T01:42:30;15.30;99.90
43099;DHT22;28715;51.988;6.020;2022-09-12T01:45:02;15.30;99.90
43099;DHT22;28715;51.988;6.020;2022-09-12T01:47:39;15.30;99.90
43099;DHT22;28715;51.988;6.020;2022-09-12T01:50:16;15.30;99.90
43099;DHT22;28715;51.988;6.020;2022-09-12T01:53:05;15.30;99.90
43099;DHT22;28715;51.988;6.020;2022-09-12T01:55:40;15.20;99.90
43099;DHT22;28715;51.988;6.020;2022-09-12T01:58:26;15.20;99.90
43099;DHT22;28715;51.988;6.020;2022-09-12T02:01:08;15.20;99.90
43099;DHT22;28715;51.988;6.020;2022-09-12T02:04:08;15.20;99.90
43099;DHT22;28715;51.988;6.020;2022-09-12T02:06:43;15.20;99.90
43099;DHT22;28715;51.988;6.020;2022-09-12T02:09:22;15.20;99.90
43099;DHT22;28715;51.988;6.020;2022-09-12T02:11:52;15.20;99.90
43099;DHT22;28715;51.988;6.020;2022-09-12T02:14:32;15.20;99.90
43099;DHT22;28715;51.988;6.020;2022-09-12T02:17:08;15.10;99.90
43099;DHT22;28715;51.988;6.020;2022-09-12T02:19:40;15.20;99.90
43099;DHT22;28715;51.988;6.020;2022-09-12T02:22:09;15.10;99.90
43099;DHT22;28715;51.988;6.020;2022-09-12T02:24:39;15.20;99.90
43099;DHT22;28715;51.988;6.020;2022-09-12T02:27:21;15.20;99.90
43099;DHT22;28715;51.988;6.020;2022-09-12T02:29:48;15.20;99.90
43099;DHT22;28715;51.988;6.020;2022-09-12T02:35:21;15.10;99.90
43099;DHT22;28715;51.988;6.020;2022-09-12T02:40:30;15.10;99.90
43099;DHT22;28715;51.988;6.020;2022-09-12T02:42:57;15.10;99.90
43099;DHT22;28715;51.988;6.020;2022-09-12T02:45:23;15.00;99.90
43099;DHT22;28715;51.988;6.020;2022-09-12T02:47:52;15.00;99.90
43099;DHT22;28715;51.988;6.020;2022-09-12T02:50:19;15.00;99.90
43099;DHT22;28715;51.988;6.020;2022-09-12T02:52:45;15.00;99.90
43099;DHT22;28715;51.988;6.020;2022-09-12T02:55:12;15.00;99.90
43099;DHT22;28715;51.988;6.020;2022-09-12T02:57:38;14.90;99.90
43099;DHT22;28715;51.988;6.020;2022-09-12T03:00:04;14.90;99.90
43099;DHT22;28715;51.988;6.020;2022-09-12T03:05:21;14.90;99.90
43099;DHT22;28715;51.988;6.020;2022-09-12T03:13:32;14.80;99.90
43099;DHT22;28715;51.988;6.020;2022-09-12T03:19:23;14.70;99.90
43099;DHT22;28715;51.988;6.020;2022-09-12T03:27:33;14.60;99.90
43099;DHT22;28715;51.988;6.020;2022-09-12T03:29:59;14.60;99.90
43099;DHT22;28715;51.988;6.020;2022-09-12T03:35:06;14.60;99.90
43099;DHT22;28715;51.988;6.020;2022-09-12T03:37:31;14.60;99.90
43099;DHT22;28715;51.988;6.020;2022-09-12T03:39:57;14.60;99.90
43099;DHT22;28715;51.988;6.020;2022-09-12T03:42:23;14.60;99.90
43099;DHT22;28715;51.988;6.020;2022-09-12T03:44:48;14.60;99.90
43099;DHT22;28715;51.988;6.020;2022-09-12T03:47:14;14.60;99.90
43099;DHT22;28715;51.988;6.020;2022-09-12T03:49:39;14.60;99.90
43099;DHT22;28715;51.988;6.020;2022-09-12T03:52:05;14.60;99.90
43099;DHT22;28715;51.988;6.020;2022-09-12T03:54:30;14.60;99.90
43099;DHT22;28715;51.988;6.020;2022-09-12T03:56:56;14.60;99.90
43099;DHT22;28715;51.988;6.020;2022-09-12T03:59:21;14.60;99.90
43099;DHT22;28715;51.988;6.020;2022-09-12T04:01:47;14.60;99.90
43099;DHT22;28715;51.988;6.020;2022-09-12T04:04:12;14.50;99.90
43099;DHT22;28715;51.988;6.020;2022-09-12T04:06:38;14.50;99.90
43099;DHT22;28715;51.988;6.020;2022-09-12T04:09:04;14.50;99.90
43099;DHT22;28715;51.988;6.020;2022-09-12T04:11:30;14.50;99.90
43099;DHT22;28715;51.988;6.020;2022-09-12T04:13:56;14.50;99.90
43099;DHT22;28715;51.988;6.020;2022-09-12T04:16:22;14.50;99.90
43099;DHT22;28715;51.988;6.020;2022-09-12T04:18:47;14.50;99.90
43099;DHT22;28715;51.988;6.020;2022-09-12T04:21:17;14.50;99.90
43099;DHT22;28715;51.988;6.020;2022-09-12T04:23:43;14.50;99.90
43099;DHT22;28715;51.988;6.020;2022-09-12T04:26:09;14.50;99.90
43099;DHT22;28715;51.988;6.020;2022-09-12T04:28:36;14.40;99.90
43099;DHT22;28715;51.988;6.020;2022-09-12T04:31:15;14.40;99.90
43099;DHT22;28715;51.988;6.020;2022-09-12T04:33:43;14.40;99.90
43099;DHT22;28715;51.988;6.020;2022-09-12T04:36:12;14.40;99.90
43099;DHT22;28715;51.988;6.020;2022-09-12T04:38:41;14.30;99.90
43099;DHT22;28715;51.988;6.020;2022-09-12T04:41:14;14.30;99.90
43099;DHT22;28715;51.988;6.020;2022-09-12T04:43:41;14.30;99.90
43099;DHT22;28715;51.988;6.020;2022-09-12T04:46:09;14.30;99.90
43099;DHT22;28715;51.988;6.020;2022-09-12T04:48:35;14.30;99.90
43099;DHT22;28715;51.988;6.020;2022-09-12T04:51:11;14.30;99.90
43099;DHT22;28715;51.988;6.020;2022-09-12T04:53:38;14.30;99.90
43099;DHT22;28715;51.988;6.020;2022-09-12T04:56:05;14.30;99.90
43099;DHT22;28715;51.988;6.020;2022-09-12T04:58:32;14.30;99.90
43099;DHT22;28715;51.988;6.020;2022-09-12T05:01:09;14.30;99.90
43099;DHT22;28715;51.988;6.020;2022-09-12T05:03:36;14.40;99.90
43099;DHT22;28715;51.988;6.020;2022-09-12T05:06:13;14.40;99.90
43099;DHT22;28715;51.988;6.020;2022-09-12T05:08:39;14.50;99.90
43099;DHT22;28715;51.988;6.020;2022-09-12T05:11:07;14.50;99.90
43099;DHT22;28715;51.988;6.020;2022-09-12T05:13:33;14.50;99.90
43099;DHT22;28715;51.988;6.020;2022-09-12T05:16:01;14.50;99.90
43099;DHT22;28715;51.988;6.020;2022-09-12T05:18:27;14.50;99.90
43099;DHT22;28715;51.988;6.020;2022-09-12T05:20:53;14.60;99.90
43099;DHT22;28715;51.988;6.020;2022-09-12T05:23:20;14.60;99.90
43099;DHT22;28715;51.988;6.020;2022-09-12T05:25:50;14.60;99.90
43099;DHT22;28715;51.988;6.020;2022-09-12T05:28:17;14.60;99.90
43099;DHT22;28715;51.988;6.020;2022-09-12T05:30:42;14.70;99.90
43099;DHT22;28715;51.988;6.020;2022-09-12T05:33:08;14.70;99.90
43099;DHT22;28715;51.988;6.020;2022-09-12T05:35:33;14.70;99.90
43099;DHT22;28715;51.988;6.020;2022-09-12T05:37:59;14.80;99.90
43099;DHT22;28715;51.988;6.020;2022-09-12T05:40:25;14.80;99.90
43099;DHT22;28715;51.988;6.020;2022-09-12T05:42:50;14.90;99.90
43099;DHT22;28715;51.988;6.020;2022-09-12T05:45:16;15.00;99.90
43099;DHT22;28715;51.988;6.020;2022-09-12T05:47:41;15.00;99.90
43099;DHT22;28715;51.988;6.020;2022-09-12T05:50:08;15.10;99.90
43099;DHT22;28715;51.988;6.020;2022-09-12T05:52:36;15.10;99.90
43099;DHT22;28715;51.988;6.020;2022-09-12T05:55:01;15.20;99.90
43099;DHT22;28715;51.988;6.020;2022-09-12T05:57:27;15.20;99.90
43099;DHT22;28715;51.988;6.020;2022-09-12T05:59:53;15.30;99.90
43099;DHT22;28715;51.988;6.020;2022-09-12T06:02:19;15.30;99.90
43099;DHT22;28715;51.988;6.020;2022-09-12T06:04:45;15.30;99.90
43099;DHT22;28715;51.988;6.020;2022-09-12T06:07:11;15.40;99.90
43099;DHT22;28715;51.988;6.020;2022-09-12T06:09:37;15.30;99.90
43099;DHT22;28715;51.988;6.020;2022-09-12T06:12:03;15.40;99.90
43099;DHT22;28715;51.988;6.020;2022-09-12T06:14:28;15.50;99.90
43099;DHT22;28715;51.988;6.020;2022-09-12T06:16:54;15.50;99.90
43099;DHT22;28715;51.988;6.020;2022-09-12T06:19:23;15.50;99.90
43099;DHT22;28715;51.988;6.020;2022-09-12T06:21:49;15.60;99.90
43099;DHT22;28715;51.988;6.020;2022-09-12T06:24:16;15.60;99.90
43099;DHT22;28715;51.988;6.020;2022-09-12T06:26:42;15.70;99.90
43099;DHT22;28715;51.988;6.020;2022-09-12T06:29:09;15.70;99.90
43099;DHT22;28715;51.988;6.020;2022-09-12T06:31:37;15.80;99.90
43099;DHT22;28715;51.988;6.020;2022-09-12T06:34:05;15.80;99.90
43099;DHT22;28715;51.988;6.020;2022-09-12T06:36:35;15.90;99.90
43099;DHT22;28715;51.988;6.020;2022-09-12T06:39:04;15.90;99.90
43099;DHT22;28715;51.988;6.020;2022-09-12T06:41:31;16.00;99.90
43099;DHT22;28715;51.988;6.020;2022-09-12T06:43:57;16.00;99.90
43099;DHT22;28715;51.988;6.020;2022-09-12T06:46:23;16.00;99.90
43099;DHT22;28715;51.988;6.020;2022-09-12T06:48:50;16.10;99.90
43099;DHT22;28715;51.988;6.020;2022-09-12T06:51:17;16.10;99.90
43099;DHT22;28715;51.988;6.020;2022-09-12T06:53:44;16.10;99.90
43099;DHT22;28715;51.988;6.020;2022-09-12T06:58:40;16.10;99.90
43099;DHT22;28715;51.988;6.020;2022-09-12T07:01:10;16.10;99.90
43099;DHT22;28715;51.988;6.020;2022-09-12T07:03:37;16.10;99.90
43099;DHT22;28715;51.988;6.020;2022-09-12T07:06:08;16.10;99.90
43099;DHT22;28715;51.988;6.020;2022-09-12T07:08:34;16.10;99.90
43099;DHT22;28715;51.988;6.020;2022-09-12T07:11:19;16.10;99.90
43099;DHT22;28715;51.988;6.020;2022-09-12T07:13:49;16.10;99.90
43099;DHT22;28715;51.988;6.020;2022-09-12T07:16:16;16.20;99.90
43099;DHT22;28715;51.988;6.020;2022-09-12T07:18:42;16.20;99.90
43099;DHT22;28715;51.988;6.020;2022-09-12T07:21:13;16.40;99.90
43099;DHT22;28715;51.988;6.020;2022-09-12T07:23:39;16.60;99.90
43099;DHT22;28715;51.988;6.020;2022-09-12T07:26:06;16.90;99.90
43099;DHT22;28715;51.988;6.020;2022-09-12T07:28:33;17.10;99.90
43099;DHT22;28715;51.988;6.020;2022-09-12T07:31:10;17.30;99.90
43099;DHT22;28715;51.988;6.020;2022-09-12T07:33:37;17.50;99.90
43099;DHT22;28715;51.988;6.020;2022-09-12T07:36:04;17.60;99.90
43099;DHT22;28715;51.988;6.020;2022-09-12T07:38:31;17.70;99.90
43099;DHT22;28715;51.988;6.020;2022-09-12T07:40:56;17.70;99.90
43099;DHT22;28715;51.988;6.020;2022-09-12T07:43:23;17.80;99.90
43099;DHT22;28715;51.988;6.020;2022-09-12T07:45:54;17.90;99.90
43099;DHT22;28715;51.988;6.020;2022-09-12T07:48:19;18.10;99.90
43099;DHT22;28715;51.988;6.020;2022-09-12T07:50:45;18.50;99.90
43099;DHT22;28715;51.988;6.020;2022-09-12T07:53:11;18.90;99.90
43099;DHT22;28715;51.988;6.020;2022-09-12T07:55:37;19.30;99.40
43099;DHT22;28715;51.988;6.020;2022-09-12T07:58:02;19.80;99.00
43099;DHT22;28715;51.988;6.020;2022-09-12T08:00:28;20.20;97.80
43099;DHT22;28715;51.988;6.020;2022-09-12T08:03:00;20.60;97.10
43099;DHT22;28715;51.988;6.020;2022-09-12T08:05:27;20.90;96.40
43099;DHT22;28715;51.988;6.020;2022-09-12T08:07:52;21.20;95.40
43099;DHT22;28715;51.988;6.020;2022-09-12T08:10:18;21.30;95.00
43099;DHT22;28715;51.988;6.020;2022-09-12T08:12:44;21.20;94.60
43099;DHT22;28715;51.988;6.020;2022-09-12T08:15:09;21.10;94.90
43099;DHT22;28715;51.988;6.020;2022-09-12T08:17:35;21.10;94.50
43099;DHT22;28715;51.988;6.020;2022-09-12T08:20:01;21.10;94.70
43099;DHT22;28715;51.988;6.020;2022-09-12T08:22:28;21.20;95.10
43099;DHT22;28715;51.988;6.020;2022-09-12T08:24:54;21.40;95.20
43099;DHT22;28715;51.988;6.020;2022-09-12T08:27:20;21.80;94.40
43099;DHT22;28715;51.988;6.020;2022-09-12T08:29:45;22.10;93.70
43099;DHT22;28715;51.988;6.020;2022-09-12T08:32:11;22.40;93.20
43099;DHT22;28715;51.988;6.020;2022-09-12T08:34:36;22.70;93.00
43099;DHT22;28715;51.988;6.020;2022-09-12T08:37:02;23.00;92.60
43099;DHT22;28715;51.988;6.020;2022-09-12T08:39:28;23.30;91.80
43099;DHT22;28715;51.988;6.020;2022-09-12T08:42:04;23.50;91.60
43099;DHT22;28715;51.988;6.020;2022-09-12T08:44:37;23.70;91.30
43099;DHT22;28715;51.988;6.020;2022-09-12T08:47:20;23.90;90.80
43099;DHT22;28715;51.988;6.020;2022-09-12T08:55:37;24.50;89.10
43099;DHT22;28715;51.988;6.020;2022-09-12T08:58:21;24.70;88.60
43099;DHT22;28715;51.988;6.020;2022-09-12T09:09:39;25.50;84.50
43099;DHT22;28715;51.988;6.020;2022-09-12T09:15:38;25.80;83.20
43099;DHT22;28715;51.988;6.020;2022-09-12T09:18:18;26.00;83.80
43099;DHT22;28715;51.988;6.020;2022-09-12T09:21:05;26.20;82.40
43099;DHT22;28715;51.988;6.020;2022-09-12T09:23:40;26.30;82.20
43099;DHT22;28715;51.988;6.020;2022-09-12T09:28:50;26.60;81.30
43099;DHT22;28715;51.988;6.020;2022-09-12T09:31:19;26.70;81.90
43099;DHT22;28715;51.988;6.020;2022-09-12T09:33:47;26.80;82.30
43099;DHT22;28715;51.988;6.020;2022-09-12T09:36:33;26.90;79.90
43099;DHT22;28715;51.988;6.020;2022-09-12T09:39:11;27.00;79.30
43099;DHT22;28715;51.988;6.020;2022-09-12T09:44:34;27.20;79.50
43099;DHT22;28715;51.988;6.020;2022-09-12T09:47:00;27.30;79.00
43099;DHT22;28715;51.988;6.020;2022-09-12T09:49:30;27.30;78.40
43099;DHT22;28715;51.988;6.020;2022-09-12T09:51:58;27.30;79.10
43099;DHT22;28715;51.988;6.020;2022-09-12T09:54:43;27.40;78.90
43099;DHT22;28715;51.988;6.020;2022-09-12T09:59:58;27.50;78.70
43099;DHT22;28715;51.988;6.020;2022-09-12T10:02:23;27.60;78.70
43099;DHT22;28715;51.988;6.020;2022-09-12T10:04:56;27.60;79.30
43099;DHT22;28715;51.988;6.020;2022-09-12T10:07:22;27.70;75.80
43099;DHT22;28715;51.988;6.020;2022-09-12T10:10:14;27.80;76.50
43099;DHT22;28715;51.988;6.020;2022-09-12T10:12:40;27.90;75.00
43099;DHT22;28715;51.988;6.020;2022-09-12T10:15:20;28.00;75.90
43099;DHT22;28715;51.988;6.020;2022-09-12T10:17:49;28.00;76.00
43099;DHT22;28715;51.988;6.020;2022-09-12T10:20:38;28.00;74.70
43099;DHT22;28715;51.988;6.020;2022-09-12T10:25:54;28.10;73.40
43099;DHT22;28715;51.988;6.020;2022-09-12T10:28:34;28.20;74.80
43099;DHT22;28715;51.988;6.020;2022-09-12T10:31:02;28.20;74.10
43099;DHT22;28715;51.988;6.020;2022-09-12T10:33:28;28.20;73.10
43099;DHT22;28715;51.988;6.020;2022-09-12T10:35:56;28.20;74.80
43099;DHT22;28715;51.988;6.020;2022-09-12T10:38:27;28.20;74.20
43099;DHT22;28715;51.988;6.020;2022-09-12T10:41:02;28.20;74.00
43099;DHT22;28715;51.988;6.020;2022-09-12T10:43:35;28.20;72.70
43099;DHT22;28715;51.988;6.020;2022-09-12T10:48:40;28.30;73.30
43099;DHT22;28715;51.988;6.020;2022-09-12T10:51:25;28.00;73.40
43099;DHT22;28715;51.988;6.020;2022-09-12T10:53:54;27.90;74.40
43099;DHT22;28715;51.988;6.020;2022-09-12T10:56:25;27.80;75.50
43099;DHT22;28715;51.988;6.020;2022-09-12T11:01:48;27.80;74.40
43099;DHT22;28715;51.988;6.020;2022-09-12T11:13:05;28.00;71.20
43099;DHT22;28715;51.988;6.020;2022-09-12T11:15:48;27.90;72.10
43099;DHT22;28715;51.988;6.020;2022-09-12T11:21:33;27.90;72.90
43099;DHT22;28715;51.988;6.020;2022-09-12T11:24:22;27.90;72.10
43099;DHT22;28715;51.988;6.020;2022-09-12T11:27:28;27.90;72.80
43099;DHT22;28715;51.988;6.020;2022-09-12T11:30:02;27.90;71.90
43099;DHT22;28715;51.988;6.020;2022-09-12T11:35:31;27.90;70.20
43099;DHT22;28715;51.988;6.020;2022-09-12T11:41:18;28.00;71.30
43099;DHT22;28715;51.988;6.020;2022-09-12T11:44:18;28.10;71.00
43099;DHT22;28715;51.988;6.020;2022-09-12T11:46:45;28.10;69.60
43099;DHT22;28715;51.988;6.020;2022-09-12T11:51:56;28.10;69.90
43099;DHT22;28715;51.988;6.020;2022-09-12T12:02:28;27.70;68.60
43099;DHT22;28715;51.988;6.020;2022-09-12T12:05:29;27.60;69.60
43099;DHT22;28715;51.988;6.020;2022-09-12T12:07:58;27.60;71.50
43099;DHT22;28715;51.988;6.020;2022-09-12T12:10:54;27.70;70.80
43099;DHT22;28715;51.988;6.020;2022-09-12T12:16:03;27.70;69.50
43099;DHT22;28715;51.988;6.020;2022-09-12T12:18:31;27.60;70.20
43099;DHT22;28715;51.988;6.020;2022-09-12T12:21:19;27.60;73.10
43099;DHT22;28715;51.988;6.020;2022-09-12T12:34:43;27.50;69.90
43099;DHT22;28715;51.988;6.020;2022-09-12T12:47:56;27.40;68.50
43099;DHT22;28715;51.988;6.020;2022-09-12T12:50:26;27.40;70.40
43099;DHT22;28715;51.988;6.020;2022-09-12T12:53:14;27.40;71.30
43099;DHT22;28715;51.988;6.020;2022-09-12T12:58:28;27.50;70.60
43099;DHT22;28715;51.988;6.020;2022-09-12T13:03:32;27.60;69.30
43099;DHT22;28715;51.988;6.020;2022-09-12T13:06:05;27.50;68.90
43099;DHT22;28715;51.988;6.020;2022-09-12T13:08:34;27.40;70.00
43099;DHT22;28715;51.988;6.020;2022-09-12T13:11:13;27.40;70.00
43099;DHT22;28715;51.988;6.020;2022-09-12T13:13:49;27.40;70.60
43099;DHT22;28715;51.988;6.020;2022-09-12T13:16:50;27.50;68.10
43099;DHT22;28715;51.988;6.020;2022-09-12T13:19:27;27.60;68.00
43099;DHT22;28715;51.988;6.020;2022-09-12T13:22:00;27.60;68.30
43099;DHT22;28715;51.988;6.020;2022-09-12T13:24:25;27.60;68.90
43099;DHT22;28715;51.988;6.020;2022-09-12T13:26:51;27.60;69.70
43099;DHT22;28715;51.988;6.020;2022-09-12T13:29:22;27.70;69.20
43099;DHT22;28715;51.988;6.020;2022-09-12T13:31:55;27.80;68.60
43099;DHT22;28715;51.988;6.020;2022-09-12T13:34:28;27.90;69.20
43099;DHT22;28715;51.988;6.020;2022-09-12T13:37:31;27.90;66.80
43099;DHT22;28715;51.988;6.020;2022-09-12T13:40:24;27.80;66.30
43099;DHT22;28715;51.988;6.020;2022-09-12T13:45:35;27.60;66.30
43099;DHT22;28715;51.988;6.020;2022-09-12T13:48:02;27.50;67.40
43099;DHT22;28715;51.988;6.020;2022-09-12T13:50:56;27.50;67.30
43099;DHT22;28715;51.988;6.020;2022-09-12T13:53:25;27.50;67.90
43099;DHT22;28715;51.988;6.020;2022-09-12T13:55:55;27.60;66.50
43099;DHT22;28715;51.988;6.020;2022-09-12T13:58:25;27.60;66.70
43099;DHT22;28715;51.988;6.020;2022-09-12T14:01:21;27.50;66.90
43099;DHT22;28715;51.988;6.020;2022-09-12T14:03:48;27.50;66.10
43099;DHT22;28715;51.988;6.020;2022-09-12T14:06:40;27.40;66.70
43099;DHT22;28715;51.988;6.020;2022-09-12T14:09:13;27.30;67.30
43099;DHT22;28715;51.988;6.020;2022-09-12T14:11:39;27.20;66.20
43099;DHT22;28715;51.988;6.020;2022-09-12T14:14:19;27.10;66.80
43099;DHT22;28715;51.988;6.020;2022-09-12T14:16:46;27.10;66.50
43099;DHT22;28715;51.988;6.020;2022-09-12T14:19:11;27.00;66.60
43099;DHT22;28715;51.988;6.020;2022-09-12T14:21:40;27.00;67.80
43099;DHT22;28715;51.988;6.020;2022-09-12T14:24:08;27.00;68.10
43099;DHT22;28715;51.988;6.020;2022-09-12T14:26:35;27.00;67.40
43099;DHT22;28715;51.988;6.020;2022-09-12T14:29:06;26.90;66.90
43099;DHT22;28715;51.988;6.020;2022-09-12T14:31:37;26.90;67.70
43099;DHT22;28715;51.988;6.020;2022-09-12T14:34:23;26.90;67.10
43099;DHT22;28715;51.988;6.020;2022-09-12T14:36:51;26.90;68.30
43099;DHT22;28715;51.988;6.020;2022-09-12T14:39:36;27.00;70.60
43099;DHT22;28715;51.988;6.020;2022-09-12T14:42:19;27.10;67.30
43099;DHT22;28715;51.988;6.020;2022-09-12T14:44:56;27.20;67.40
43099;DHT22;28715;51.988;6.020;2022-09-12T14:47:24;27.20;65.80
43099;DHT22;28715;51.988;6.020;2022-09-12T14:49:50;27.10;67.80
43099;DHT22;28715;51.988;6.020;2022-09-12T14:55:02;27.20;66.50
43099;DHT22;28715;51.988;6.020;2022-09-12T14:57:34;27.20;67.70
43099;DHT22;28715;51.988;6.020;2022-09-12T15:02:36;27.10;66.20
43099;DHT22;28715;51.988;6.020;2022-09-12T15:07:44;27.10;67.80
43099;DHT22;28715;51.988;6.020;2022-09-12T15:15:31;26.80;67.30
43099;DHT22;28715;51.988;6.020;2022-09-12T15:17:57;26.70;66.20
43099;DHT22;28715;51.988;6.020;2022-09-12T15:20:23;26.70;67.30
43099;DHT22;28715;51.988;6.020;2022-09-12T15:22:49;26.70;68.10
43099;DHT22;28715;51.988;6.020;2022-09-12T15:25:14;26.70;68.60
43099;DHT22;28715;51.988;6.020;2022-09-12T15:27:40;26.70;66.30
43099;DHT22;28715;51.988;6.020;2022-09-12T15:30:10;26.60;66.70
43099;DHT22;28715;51.988;6.020;2022-09-12T15:32:37;26.50;66.80
43099;DHT22;28715;51.988;6.020;2022-09-12T15:35:15;26.50;68.60
43099;DHT22;28715;51.988;6.020;2022-09-12T15:37:40;26.40;67.90
43099;DHT22;28715;51.988;6.020;2022-09-12T15:40:07;26.50;67.50
43099;DHT22;28715;51.988;6.020;2022-09-12T15:42:33;26.40;67.50
43099;DHT22;28715;51.988;6.020;2022-09-12T15:44:59;26.40;67.50
43099;DHT22;28715;51.988;6.020;2022-09-12T15:47:24;26.40;68.50
43099;DHT22;28715;51.988;6.020;2022-09-12T15:49:50;26.30;68.30
43099;DHT22;28715;51.988;6.020;2022-09-12T15:52:16;26.30;69.60
43099;DHT22;28715;51.988;6.020;2022-09-12T15:54:42;26.20;69.60
43099;DHT22;28715;51.988;6.020;2022-09-12T15:57:08;26.20;69.60
43099;DHT22;28715;51.988;6.020;2022-09-12T15:59:34;26.20;70.10
43099;DHT22;28715;51.988;6.020;2022-09-12T16:02:00;26.20;70.20
43099;DHT22;28715;51.988;6.020;2022-09-12T16:04:28;26.20;70.00
43099;DHT22;28715;51.988;6.020;2022-09-12T16:06:55;26.20;69.90
43099;DHT22;28715;51.988;6.020;2022-09-12T16:09:22;26.20;70.40
43099;DHT22;28715;51.988;6.020;2022-09-12T16:11:48;26.20;69.50
43099;DHT22;28715;51.988;6.020;2022-09-12T16:14:16;26.20;69.60
43099;DHT22;28715;51.988;6.020;2022-09-12T16:16:42;26.30;70.90
43099;DHT22;28715;51.988;6.020;2022-09-12T16:19:08;26.30;69.20
43099;DHT22;28715;51.988;6.020;2022-09-12T16:21:35;26.30;69.60
43099;DHT22;28715;51.988;6.020;2022-09-12T16:24:01;26.20;69.20
43099;DHT22;28715;51.988;6.020;2022-09-12T16:26:27;26.20;68.90
43099;DHT22;28715;51.988;6.020;2022-09-12T16:28:56;26.20;69.00
43099;DHT22;28715;51.988;6.020;2022-09-12T16:31:22;26.10;70.10
43099;DHT22;28715;51.988;6.020;2022-09-12T16:33:48;26.10;70.40
43099;DHT22;28715;51.988;6.020;2022-09-12T16:36:18;26.00;70.40
43099;DHT22;28715;51.988;6.020;2022-09-12T16:38:53;26.00;70.50
43099;DHT22;28715;51.988;6.020;2022-09-12T16:41:22;25.90;70.10
43099;DHT22;28715;51.988;6.020;2022-09-12T16:43:49;25.90;70.90
43099;DHT22;28715;51.988;6.020;2022-09-12T16:46:21;26.00;71.50
43099;DHT22;28715;51.988;6.020;2022-09-12T16:48:52;26.00;70.60
43099;DHT22;28715;51.988;6.020;2022-09-12T16:51:20;26.00;71.10
43099;DHT22;28715;51.988;6.020;2022-09-12T16:53:47;26.00;71.70
43099;DHT22;28715;51.988;6.020;2022-09-12T16:56:13;26.00;71.00
43099;DHT22;28715;51.988;6.020;2022-09-12T16:58:39;25.90;71.40
43099;DHT22;28715;51.988;6.020;2022-09-12T17:01:07;25.90;70.10
43099;DHT22;28715;51.988;6.020;2022-09-12T17:03:34;25.80;70.50
43099;DHT22;28715;51.988;6.020;2022-09-12T17:06:14;25.80;70.90
43099;DHT22;28715;51.988;6.020;2022-09-12T17:08:42;25.70;71.70
43099;DHT22;28715;51.988;6.020;2022-09-12T17:11:11;25.60;71.70
43099;DHT22;28715;51.988;6.020;2022-09-12T17:13:37;25.60;71.90
43099;DHT22;28715;51.988;6.020;2022-09-12T17:16:05;25.50;72.20
43099;DHT22;28715;51.988;6.020;2022-09-12T17:18:31;25.50;72.20
43099;DHT22;28715;51.988;6.020;2022-09-12T17:20:56;25.50;72.60
43099;DHT22;28715;51.988;6.020;2022-09-12T17:23:22;25.40;74.20
43099;DHT22;28715;51.988;6.020;2022-09-12T17:25:49;25.30;73.10
43099;DHT22;28715;51.988;6.020;2022-09-12T17:28:16;25.20;74.20
43099;DHT22;28715;51.988;6.020;2022-09-12T17:30:42;25.20;74.80
43099;DHT22;28715;51.988;6.020;2022-09-12T17:33:08;25.10;74.90
43099;DHT22;28715;51.988;6.020;2022-09-12T17:35:35;25.00;74.50
43099;DHT22;28715;51.988;6.020;2022-09-12T17:38:01;25.00;74.80
43099;DHT22;28715;51.988;6.020;2022-09-12T17:40:27;24.90;75.20
43099;DHT22;28715;51.988;6.020;2022-09-12T17:42:53;24.90;75.40
43099;DHT22;28715;51.988;6.020;2022-09-12T17:45:18;24.80;75.10
43099;DHT22;28715;51.988;6.020;2022-09-12T17:47:44;24.70;76.00
43099;DHT22;28715;51.988;6.020;2022-09-12T17:50:09;24.70;76.20
43099;DHT22;28715;51.988;6.020;2022-09-12T17:52:35;24.60;76.40
43099;DHT22;28715;51.988;6.020;2022-09-12T17:55:01;24.50;76.70
43099;DHT22;28715;51.988;6.020;2022-09-12T17:57:27;24.50;77.00
43099;DHT22;28715;51.988;6.020;2022-09-12T17:59:52;24.40;76.90
43099;DHT22;28715;51.988;6.020;2022-09-12T18:02:18;24.30;77.20
43099;DHT22;28715;51.988;6.020;2022-09-12T18:04:45;24.30;77.40
43099;DHT22;28715;51.988;6.020;2022-09-12T18:07:15;24.20;78.10
43099;DHT22;28715;51.988;6.020;2022-09-12T18:09:42;24.10;78.60
43099;DHT22;28715;51.988;6.020;2022-09-12T18:12:09;24.10;78.40
43099;DHT22;28715;51.988;6.020;2022-09-12T18:14:35;24.00;79.40
43099;DHT22;28715;51.988;6.020;2022-09-12T18:17:00;24.00;79.10
43099;DHT22;28715;51.988;6.020;2022-09-12T18:19:27;24.00;79.30